RPi & Temperatures at JO21ut

Last graph updates: Tuesday 26 September 2017 12:02 CEST

Sunrise: 07:29 & Sunset: 19:27 The Sun is currently visible at an elevation of 36.31 degrees and azimut of 169 and 149950937 Km from the Earth
Moonrise: 13:54 & Moonset: 22:51 Quarter Moon The Moon is 405182 Km from the Earth
Find here more details on MARS.

12:53:42 up 44 days, 20:20, 0 users, load average: 0.60, 0.49, 0.47
Current CPU frequency is: 1000 Mhz
Current GPU temperature: 29.862°C
Current inside temperature is 20.3°C with a humidity of 70.3%
Second inside temperature is 20.4°C with a pressure of 1019.06 Hpa (29.86 inHg) and an uncorrected altitude of -48.84 m
ds18b20 now showing 20.3°C

All the sensors I use, DHT22 | BMP085 | MPU6050 | BH1750FVI | MMA7455 | HMC5883L | MPL3115A2 | DS1307 | HTU21 | AM2321 | DS3231 | INA219 , and it's current readout can be viewed here please be patient as it needs to read all sensors data. The page loads after about 10 seconds. In our forum more details can be found such as the used software/sources. Feel free to add yours also..


Pressure BMP085
Pressure BMP085
Pressure BMP085
Pressure BMP085
PI CPU Temp
Inet Volkel temp
Inside temp BMP085
Humidity BMP085
PI CPU Temp
Inet Volkel temp
Inside temp BMP085
Humidity BMP085
PI CPU Temp
Inet Volkel temp
Inside temp BMP085
Humidity BMP085
PI CPU Temp
Inet Volkel temp
Inside temp BMP085
Humidity BMP085
PI CPU Temp
Inet Volkel temp
Inside temp BMP085
Humidity BMP085
Inside light BH1750FV
Inside light BH1750FV
Inside light BH1750FV
Inside light BH1750FV
Inside light BH1750FV
Inside light BH1750FV
 

Sun & Moon height


Wijchen weather

Weer Widget
ScreenSaver yr.no

Sun Moon Earth


EHEH 261025Z AUTO 05006KT 030V120 4700 BR OVC005 14/13 Q1022 YLO 06005KT 2000 BR SCT002 BKN003 BECMG 4000 BR SCT005 BKN008 EHEH 261025Z AUTO 05006KT 030V120 4700 BR OVC005 14/13 Q1022 YLO 06005KT 2000 BR SCT002 BKN003 BECMG 4000 BR SCT005 BKN008 EHEH 261025Z AUTO 05006KT 030V120 4700 BR OVC005 14/13 Q1022 YLO 06005KT 2000 BR SCT002 BKN003 BECMG 4000 BR SCT005 BKN008

Weather data from Volkel [NL] EHVK


29 minutes ago, at 10:25 UTC, the wind was blowing at a speed of 2.6 meters per second (5.8 miles per hour/5 knots) from East/Northeast (060) in Volkel [EHVK], Netherlands. The temperature was 14 °C (57 °F) with a dewpoint of 13 °C (55 °F), and the pressure was 1,022 hPa (30.18 inHg). The relative humidity was 93.7%. There were overcast at a height of 152 meter (500 feet), scattered clouds at a height of 61 meter (200 feet) and broken clouds at a height of 91 meter (300 feet). The visibility was 2.0 kilometers (1.2 miles). Current weather is Moderate Mist Moderate Mist .




View code:

Contact me  |  My Raspberry PI forum